Vieregg, Nebraska
Current Conditions -  °F | °C
As of 11:53 AM on Friday 28 Nov 2014 (Local Time) from KGRI Reporting Station
Clear Clear  
Wind Chill: 59°   Ceiling: Unl
Heat Index: 59°   Visibility: 10mi
Dew Point: 30°   Wind: 16mph
Humidity: 33%   Direction: 240°WSW
Pressure: 29.75"   Gusts: NA
Location:  41.0003°N, 98.2036°W
Report Text: KGRI 281753Z 24014KT 10SM CLR 15/M01 A2975 RMK AO2 SLP086 T01501011 10150 21050 58023
Loading
Personal Weather Stations






























Interactive Weather Map New forecast layout! Learn more

10-Day Weather Forecast

Advertisements
Track Severe Weather on mobile